sensor_id;sensor_type;location;lat;lon;timestamp;temperature;humidity
43808;DHT22;29438;50.664;10.098;2023-06-19T00:00:06;19.70;57.00
43808;DHT22;29438;50.664;10.098;2023-06-19T00:02:41;19.70;56.50
43808;DHT22;29438;50.664;10.098;2023-06-19T00:05:07;19.70;57.20
43808;DHT22;29438;50.664;10.098;2023-06-19T00:07:34;19.70;57.00
43808;DHT22;29438;50.664;10.098;2023-06-19T00:09:59;19.70;56.90
43808;DHT22;29438;50.664;10.098;2023-06-19T00:12:25;19.70;57.50
43808;DHT22;29438;50.664;10.098;2023-06-19T00:14:50;19.70;57.50
43808;DHT22;29438;50.664;10.098;2023-06-19T00:17:16;19.60;57.80
43808;DHT22;29438;50.664;10.098;2023-06-19T00:19:44;19.60;57.80
43808;DHT22;29438;50.664;10.098;2023-06-19T00:22:10;19.60;58.20
43808;DHT22;29438;50.664;10.098;2023-06-19T00:24:35;19.60;58.40
43808;DHT22;29438;50.664;10.098;2023-06-19T00:27:01;19.60;59.00
43808;DHT22;29438;50.664;10.098;2023-06-19T00:29:31;19.50;58.30
43808;DHT22;29438;50.664;10.098;2023-06-19T00:31:57;19.50;58.50
43808;DHT22;29438;50.664;10.098;2023-06-19T00:34:22;19.50;58.90
43808;DHT22;29438;50.664;10.098;2023-06-19T00:36:52;19.50;58.70
43808;DHT22;29438;50.664;10.098;2023-06-19T00:39:25;19.50;58.50
43808;DHT22;29438;50.664;10.098;2023-06-19T00:41:54;19.50;58.80
43808;DHT22;29438;50.664;10.098;2023-06-19T00:44:20;19.50;58.80
43808;DHT22;29438;50.664;10.098;2023-06-19T00:46:46;19.40;58.40
43808;DHT22;29438;50.664;10.098;2023-06-19T00:49:13;19.50;58.40
43808;DHT22;29438;50.664;10.098;2023-06-19T00:51:39;19.40;58.10
43808;DHT22;29438;50.664;10.098;2023-06-19T00:54:05;19.40;57.70
43808;DHT22;29438;50.664;10.098;2023-06-19T00:56:32;19.30;58.60
43808;DHT22;29438;50.664;10.098;2023-06-19T00:59:00;19.30;59.20
43808;DHT22;29438;50.664;10.098;2023-06-19T01:01:26;19.30;58.40
43808;DHT22;29438;50.664;10.098;2023-06-19T01:03:52;19.20;58.50
43808;DHT22;29438;50.664;10.098;2023-06-19T01:06:23;19.20;59.80
43808;DHT22;29438;50.664;10.098;2023-06-19T01:09:03;19.20;60.10
43808;DHT22;29438;50.664;10.098;2023-06-19T01:11:51;19.20;60.20
43808;DHT22;29438;50.664;10.098;2023-06-19T01:15:07;19.20;60.40
43808;DHT22;29438;50.664;10.098;2023-06-19T01:17:32;19.20;59.80
43808;DHT22;29438;50.664;10.098;2023-06-19T01:19:59;19.10;60.00
43808;DHT22;29438;50.664;10.098;2023-06-19T01:22:26;19.10;61.00
43808;DHT22;29438;50.664;10.098;2023-06-19T01:24:52;19.00;61.10
43808;DHT22;29438;50.664;10.098;2023-06-19T01:27:17;18.90;61.80
43808;DHT22;29438;50.664;10.098;2023-06-19T01:29:43;18.90;61.60
43808;DHT22;29438;50.664;10.098;2023-06-19T01:32:18;18.90;60.90
43808;DHT22;29438;50.664;10.098;2023-06-19T01:34:46;18.90;62.30
43808;DHT22;29438;50.664;10.098;2023-06-19T01:37:12;18.90;62.90
43808;DHT22;29438;50.664;10.098;2023-06-19T01:39:39;18.80;62.70
43808;DHT22;29438;50.664;10.098;2023-06-19T01:42:06;18.80;63.10
43808;DHT22;29438;50.664;10.098;2023-06-19T01:44:32;18.80;63.50
43808;DHT22;29438;50.664;10.098;2023-06-19T01:46:58;18.70;63.80
43808;DHT22;29438;50.664;10.098;2023-06-19T01:49:23;18.70;63.10
43808;DHT22;29438;50.664;10.098;2023-06-19T01:51:49;18.70;62.90
43808;DHT22;29438;50.664;10.098;2023-06-19T01:54:15;18.70;63.20
43808;DHT22;29438;50.664;10.098;2023-06-19T01:56:41;18.70;63.30
43808;DHT22;29438;50.664;10.098;2023-06-19T01:59:06;18.70;63.50
43808;DHT22;29438;50.664;10.098;2023-06-19T02:01:32;18.70;63.70
43808;DHT22;29438;50.664;10.098;2023-06-19T02:03:57;18.70;64.50
43808;DHT22;29438;50.664;10.098;2023-06-19T02:06:23;18.70;63.60
43808;DHT22;29438;50.664;10.098;2023-06-19T02:08:48;18.60;64.70
43808;DHT22;29438;50.664;10.098;2023-06-19T02:11:14;18.70;64.40
43808;DHT22;29438;50.664;10.098;2023-06-19T02:13:40;18.60;65.20
43808;DHT22;29438;50.664;10.098;2023-06-19T02:16:06;18.70;63.80
43808;DHT22;29438;50.664;10.098;2023-06-19T02:18:31;18.70;64.30
43808;DHT22;29438;50.664;10.098;2023-06-19T02:20:58;18.70;64.20
43808;DHT22;29438;50.664;10.098;2023-06-19T02:23:23;18.70;62.50
43808;DHT22;29438;50.664;10.098;2023-06-19T02:25:49;18.80;62.60
43808;DHT22;29438;50.664;10.098;2023-06-19T02:28:14;18.80;62.50
43808;DHT22;29438;50.664;10.098;2023-06-19T02:30:41;18.80;63.60
43808;DHT22;29438;50.664;10.098;2023-06-19T02:33:07;18.80;63.20
43808;DHT22;29438;50.664;10.098;2023-06-19T02:35:33;18.70;62.30
43808;DHT22;29438;50.664;10.098;2023-06-19T02:37:58;18.70;63.40
43808;DHT22;29438;50.664;10.098;2023-06-19T02:40:24;18.60;63.80
43808;DHT22;29438;50.664;10.098;2023-06-19T02:42:49;18.60;63.20
43808;DHT22;29438;50.664;10.098;2023-06-19T02:45:15;18.60;63.70
43808;DHT22;29438;50.664;10.098;2023-06-19T02:47:41;18.60;64.00
43808;DHT22;29438;50.664;10.098;2023-06-19T02:50:07;18.60;63.40
43808;DHT22;29438;50.664;10.098;2023-06-19T02:52:33;18.60;63.30
43808;DHT22;29438;50.664;10.098;2023-06-19T02:54:58;18.60;62.50
43808;DHT22;29438;50.664;10.098;2023-06-19T02:57:24;18.50;63.60
43808;DHT22;29438;50.664;10.098;2023-06-19T02:59:50;18.50;63.30
43808;DHT22;29438;50.664;10.098;2023-06-19T03:02:15;18.50;63.40
43808;DHT22;29438;50.664;10.098;2023-06-19T03:04:40;18.50;63.30
43808;DHT22;29438;50.664;10.098;2023-06-19T03:07:09;18.40;63.50
43808;DHT22;29438;50.664;10.098;2023-06-19T03:09:35;18.40;63.40
43808;DHT22;29438;50.664;10.098;2023-06-19T03:12:01;18.40;63.30
43808;DHT22;29438;50.664;10.098;2023-06-19T03:14:26;18.30;63.00
43808;DHT22;29438;50.664;10.098;2023-06-19T03:16:52;18.30;63.40
43808;DHT22;29438;50.664;10.098;2023-06-19T03:19:17;18.30;62.70
43808;DHT22;29438;50.664;10.098;2023-06-19T03:21:43;18.40;62.80
43808;DHT22;29438;50.664;10.098;2023-06-19T03:24:08;18.30;63.20
43808;DHT22;29438;50.664;10.098;2023-06-19T03:26:34;18.40;63.20
43808;DHT22;29438;50.664;10.098;2023-06-19T03:28:59;18.40;62.70
43808;DHT22;29438;50.664;10.098;2023-06-19T03:31:25;18.50;61.80
43808;DHT22;29438;50.664;10.098;2023-06-19T03:33:50;18.60;62.50
43808;DHT22;29438;50.664;10.098;2023-06-19T03:36:16;18.60;62.50
43808;DHT22;29438;50.664;10.098;2023-06-19T03:38:41;18.60;61.40
43808;DHT22;29438;50.664;10.098;2023-06-19T03:41:07;18.50;61.10
43808;DHT22;29438;50.664;10.098;2023-06-19T03:43:33;18.50;61.70
43808;DHT22;29438;50.664;10.098;2023-06-19T03:45:58;18.40;61.50
43808;DHT22;29438;50.664;10.098;2023-06-19T03:48:24;18.40;62.00
43808;DHT22;29438;50.664;10.098;2023-06-19T03:50:49;18.30;61.50
43808;DHT22;29438;50.664;10.098;2023-06-19T03:53:15;18.30;61.90
43808;DHT22;29438;50.664;10.098;2023-06-19T03:55:40;18.30;61.70
43808;DHT22;29438;50.664;10.098;2023-06-19T03:58:06;18.40;61.00
43808;DHT22;29438;50.664;10.098;2023-06-19T04:00:32;18.50;61.10
43808;DHT22;29438;50.664;10.098;2023-06-19T04:02:57;18.80;60.60
43808;DHT22;29438;50.664;10.098;2023-06-19T04:05:23;18.90;59.90
43808;DHT22;29438;50.664;10.098;2023-06-19T04:07:48;19.10;60.50
43808;DHT22;29438;50.664;10.098;2023-06-19T04:10:14;19.30;59.50
43808;DHT22;29438;50.664;10.098;2023-06-19T04:12:40;19.60;59.30
43808;DHT22;29438;50.664;10.098;2023-06-19T04:15:06;19.70;59.50
43808;DHT22;29438;50.664;10.098;2023-06-19T04:17:32;19.70;57.70
43808;DHT22;29438;50.664;10.098;2023-06-19T04:19:57;20.00;57.30
43808;DHT22;29438;50.664;10.098;2023-06-19T04:22:23;20.20;56.00
43808;DHT22;29438;50.664;10.098;2023-06-19T04:24:48;20.20;56.10
43808;DHT22;29438;50.664;10.098;2023-06-19T04:27:14;20.20;59.30
43808;DHT22;29438;50.664;10.098;2023-06-19T04:29:39;20.20;58.40
43808;DHT22;29438;50.664;10.098;2023-06-19T04:32:05;20.20;56.90
43808;DHT22;29438;50.664;10.098;2023-06-19T04:34:37;20.20;57.60
43808;DHT22;29438;50.664;10.098;2023-06-19T04:37:03;20.20;59.80
43808;DHT22;29438;50.664;10.098;2023-06-19T04:39:29;20.20;59.30
43808;DHT22;29438;50.664;10.098;2023-06-19T04:41:54;20.20;59.40
43808;DHT22;29438;50.664;10.098;2023-06-19T04:44:20;20.20;60.30
43808;DHT22;29438;50.664;10.098;2023-06-19T04:46:45;20.10;59.70
43808;DHT22;29438;50.664;10.098;2023-06-19T04:49:12;20.00;59.80
43808;DHT22;29438;50.664;10.098;2023-06-19T04:51:38;19.90;59.60
43808;DHT22;29438;50.664;10.098;2023-06-19T04:54:03;19.90;60.20
43808;DHT22;29438;50.664;10.098;2023-06-19T04:56:29;19.80;59.40
43808;DHT22;29438;50.664;10.098;2023-06-19T04:58:58;19.80;60.50
43808;DHT22;29438;50.664;10.098;2023-06-19T05:01:26;19.80;60.10
43808;DHT22;29438;50.664;10.098;2023-06-19T05:03:56;19.80;60.20
43808;DHT22;29438;50.664;10.098;2023-06-19T05:06:24;19.70;59.90
43808;DHT22;29438;50.664;10.098;2023-06-19T05:08:50;19.70;59.90
43808;DHT22;29438;50.664;10.098;2023-06-19T05:11:16;19.70;60.90
43808;DHT22;29438;50.664;10.098;2023-06-19T05:13:42;19.70;61.10
43808;DHT22;29438;50.664;10.098;2023-06-19T05:16:07;19.70;56.80
43808;DHT22;29438;50.664;10.098;2023-06-19T05:18:32;19.90;58.70
43808;DHT22;29438;50.664;10.098;2023-06-19T05:20:58;19.90;59.10
43808;DHT22;29438;50.664;10.098;2023-06-19T05:23:24;20.00;57.20
43808;DHT22;29438;50.664;10.098;2023-06-19T05:25:49;20.20;57.80
43808;DHT22;29438;50.664;10.098;2023-06-19T05:28:15;20.20;55.50
43808;DHT22;29438;50.664;10.098;2023-06-19T05:30:40;20.30;56.40
43808;DHT22;29438;50.664;10.098;2023-06-19T05:33:06;20.30;56.60
43808;DHT22;29438;50.664;10.098;2023-06-19T05:35:31;20.30;58.00
43808;DHT22;29438;50.664;10.098;2023-06-19T05:37:57;20.40;58.40
43808;DHT22;29438;50.664;10.098;2023-06-19T05:40:23;20.40;56.30
43808;DHT22;29438;50.664;10.098;2023-06-19T05:42:48;20.50;57.40
43808;DHT22;29438;50.664;10.098;2023-06-19T05:45:14;20.40;57.40
43808;DHT22;29438;50.664;10.098;2023-06-19T05:47:39;20.50;57.00
43808;DHT22;29438;50.664;10.098;2023-06-19T05:50:05;20.70;53.00
43808;DHT22;29438;50.664;10.098;2023-06-19T05:52:31;21.10;51.10
43808;DHT22;29438;50.664;10.098;2023-06-19T05:54:56;21.30;50.50
43808;DHT22;29438;50.664;10.098;2023-06-19T05:57:23;21.30;51.30
43808;DHT22;29438;50.664;10.098;2023-06-19T05:59:52;21.40;51.90
43808;DHT22;29438;50.664;10.098;2023-06-19T06:02:19;21.40;52.10
43808;DHT22;29438;50.664;10.098;2023-06-19T06:04:44;21.40;52.60
43808;DHT22;29438;50.664;10.098;2023-06-19T06:07:10;21.40;52.30
43808;DHT22;29438;50.664;10.098;2023-06-19T06:09:36;21.40;52.70
43808;DHT22;29438;50.664;10.098;2023-06-19T06:12:01;21.40;53.00
43808;DHT22;29438;50.664;10.098;2023-06-19T06:14:27;21.50;54.00
43808;DHT22;29438;50.664;10.098;2023-06-19T06:16:53;21.50;53.90
43808;DHT22;29438;50.664;10.098;2023-06-19T06:19:20;21.50;54.40
43808;DHT22;29438;50.664;10.098;2023-06-19T06:21:46;21.50;54.60
43808;DHT22;29438;50.664;10.098;2023-06-19T06:24:12;21.50;55.10
43808;DHT22;29438;50.664;10.098;2023-06-19T06:26:37;21.60;55.00
43808;DHT22;29438;50.664;10.098;2023-06-19T06:29:03;21.50;55.60
43808;DHT22;29438;50.664;10.098;2023-06-19T06:31:28;21.50;56.20
43808;DHT22;29438;50.664;10.098;2023-06-19T06:33:54;21.50;57.20
43808;DHT22;29438;50.664;10.098;2023-06-19T06:36:19;21.40;58.70
43808;DHT22;29438;50.664;10.098;2023-06-19T06:38:45;21.30;58.00
43808;DHT22;29438;50.664;10.098;2023-06-19T06:41:10;21.20;58.00
43808;DHT22;29438;50.664;10.098;2023-06-19T06:43:36;21.20;58.00
43808;DHT22;29438;50.664;10.098;2023-06-19T06:46:01;21.20;58.20
43808;DHT22;29438;50.664;10.098;2023-06-19T06:48:27;21.30;58.70
43808;DHT22;29438;50.664;10.098;2023-06-19T06:50:52;21.30;58.90
43808;DHT22;29438;50.664;10.098;2023-06-19T06:53:25;21.40;58.90
43808;DHT22;29438;50.664;10.098;2023-06-19T06:55:51;21.40;58.70
43808;DHT22;29438;50.664;10.098;2023-06-19T06:58:16;21.50;59.20
43808;DHT22;29438;50.664;10.098;2023-06-19T07:00:44;21.60;58.90
43808;DHT22;29438;50.664;10.098;2023-06-19T07:03:09;21.70;58.60
43808;DHT22;29438;50.664;10.098;2023-06-19T07:05:35;21.80;58.40
43808;DHT22;29438;50.664;10.098;2023-06-19T07:08:00;21.90;58.30
43808;DHT22;29438;50.664;10.098;2023-06-19T07:10:26;22.00;58.40
43808;DHT22;29438;50.664;10.098;2023-06-19T07:12:51;22.10;58.50
43808;DHT22;29438;50.664;10.098;2023-06-19T07:15:17;22.20;58.30
43808;DHT22;29438;50.664;10.098;2023-06-19T07:17:46;22.40;57.60
43808;DHT22;29438;50.664;10.098;2023-06-19T07:20:12;22.60;56.50
43808;DHT22;29438;50.664;10.098;2023-06-19T07:22:37;22.80;56.80
43808;DHT22;29438;50.664;10.098;2023-06-19T07:25:04;23.00;56.50
43808;DHT22;29438;50.664;10.098;2023-06-19T07:27:30;23.20;56.00
43808;DHT22;29438;50.664;10.098;2023-06-19T07:29:55;23.60;55.00
43808;DHT22;29438;50.664;10.098;2023-06-19T07:32:21;23.70;54.10
43808;DHT22;29438;50.664;10.098;2023-06-19T07:34:46;24.40;53.10
43808;DHT22;29438;50.664;10.098;2023-06-19T07:37:12;25.40;51.00
43808;DHT22;29438;50.664;10.098;2023-06-19T07:39:46;25.80;49.80
43808;DHT22;29438;50.664;10.098;2023-06-19T07:42:14;26.20;49.10
43808;DHT22;29438;50.664;10.098;2023-06-19T07:44:40;26.60;48.70
43808;DHT22;29438;50.664;10.098;2023-06-19T07:47:07;26.70;47.90
43808;DHT22;29438;50.664;10.098;2023-06-19T07:49:32;26.70;48.40
43808;DHT22;29438;50.664;10.098;2023-06-19T07:51:58;27.00;48.00
43808;DHT22;29438;50.664;10.098;2023-06-19T07:54:25;26.60;48.60
43808;DHT22;29438;50.664;10.098;2023-06-19T07:56:50;27.00;47.70
43808;DHT22;29438;50.664;10.098;2023-06-19T07:59:16;27.20;47.20
43808;DHT22;29438;50.664;10.098;2023-06-19T08:01:42;27.80;46.00
43808;DHT22;29438;50.664;10.098;2023-06-19T08:04:08;27.20;46.90
43808;DHT22;29438;50.664;10.098;2023-06-19T08:06:33;26.90;48.40
43808;DHT22;29438;50.664;10.098;2023-06-19T08:08:59;26.60;48.90
43808;DHT22;29438;50.664;10.098;2023-06-19T08:11:24;26.40;49.60
43808;DHT22;29438;50.664;10.098;2023-06-19T08:13:50;26.20;49.90
43808;DHT22;29438;50.664;10.098;2023-06-19T08:16:16;26.20;50.20
43808;DHT22;29438;50.664;10.098;2023-06-19T08:18:43;26.00;51.00
43808;DHT22;29438;50.664;10.098;2023-06-19T08:21:09;26.20;51.00
43808;DHT22;29438;50.664;10.098;2023-06-19T08:23:35;26.30;49.50
43808;DHT22;29438;50.664;10.098;2023-06-19T08:26:01;26.70;48.50
43808;DHT22;29438;50.664;10.098;2023-06-19T08:28:27;27.80;46.80
43808;DHT22;29438;50.664;10.098;2023-06-19T08:30:52;28.30;46.90
43808;DHT22;29438;50.664;10.098;2023-06-19T08:33:18;28.40;46.00
43808;DHT22;29438;50.664;10.098;2023-06-19T08:35:43;28.60;46.30
43808;DHT22;29438;50.664;10.098;2023-06-19T08:38:09;28.60;45.50
43808;DHT22;29438;50.664;10.098;2023-06-19T08:40:35;28.50;46.00
43808;DHT22;29438;50.664;10.098;2023-06-19T08:43:01;28.60;47.20
43808;DHT22;29438;50.664;10.098;2023-06-19T08:45:27;29.20;44.70
43808;DHT22;29438;50.664;10.098;2023-06-19T08:48:00;29.40;44.80
43808;DHT22;29438;50.664;10.098;2023-06-19T08:50:26;29.50;44.10
43808;DHT22;29438;50.664;10.098;2023-06-19T08:52:51;29.70;44.80
43808;DHT22;29438;50.664;10.098;2023-06-19T08:55:17;29.40;44.30
43808;DHT22;29438;50.664;10.098;2023-06-19T08:57:42;29.10;44.90
43808;DHT22;29438;50.664;10.098;2023-06-19T09:00:08;29.60;44.30
43808;DHT22;29438;50.664;10.098;2023-06-19T09:02:46;29.60;43.90
43808;DHT22;29438;50.664;10.098;2023-06-19T09:05:16;30.50;42.40
43808;DHT22;29438;50.664;10.098;2023-06-19T09:07:53;31.20;41.60
43808;DHT22;29438;50.664;10.098;2023-06-19T09:10:19;31.40;40.90
43808;DHT22;29438;50.664;10.098;2023-06-19T09:13:02;31.10;41.70
43808;DHT22;29438;50.664;10.098;2023-06-19T09:15:34;30.20;42.40
43808;DHT22;29438;50.664;10.098;2023-06-19T09:18:04;29.60;43.10
43808;DHT22;29438;50.664;10.098;2023-06-19T09:20:33;30.50;43.20
43808;DHT22;29438;50.664;10.098;2023-06-19T09:22:59;31.80;41.40
43808;DHT22;29438;50.664;10.098;2023-06-19T09:25:25;32.60;38.80
43808;DHT22;29438;50.664;10.098;2023-06-19T09:27:53;33.90;36.50
43808;DHT22;29438;50.664;10.098;2023-06-19T09:30:19;34.70;35.90
43808;DHT22;29438;50.664;10.098;2023-06-19T09:32:45;34.80;36.00
43808;DHT22;29438;50.664;10.098;2023-06-19T09:35:10;34.60;35.70
43808;DHT22;29438;50.664;10.098;2023-06-19T09:37:38;34.00;37.00
43808;DHT22;29438;50.664;10.098;2023-06-19T09:40:04;34.40;35.30
43808;DHT22;29438;50.664;10.098;2023-06-19T09:42:38;34.80;34.40
43808;DHT22;29438;50.664;10.098;2023-06-19T09:45:06;34.40;35.70
43808;DHT22;29438;50.664;10.098;2023-06-19T09:47:42;34.10;36.90
43808;DHT22;29438;50.664;10.098;2023-06-19T09:50:12;33.90;38.00
43808;DHT22;29438;50.664;10.098;2023-06-19T09:52:38;33.50;36.30
43808;DHT22;29438;50.664;10.098;2023-06-19T09:55:05;32.40;39.20
43808;DHT22;29438;50.664;10.098;2023-06-19T09:57:32;31.90;39.70
43808;DHT22;29438;50.664;10.098;2023-06-19T09:59:59;32.50;38.70
43808;DHT22;29438;50.664;10.098;2023-06-19T10:02:34;33.10;38.30
43808;DHT22;29438;50.664;10.098;2023-06-19T10:05:00;33.70;37.50
43808;DHT22;29438;50.664;10.098;2023-06-19T10:07:33;33.70;37.40
43808;DHT22;29438;50.664;10.098;2023-06-19T10:12:47;34.10;36.70
43808;DHT22;29438;50.664;10.098;2023-06-19T10:17:42;33.90;36.90
43808;DHT22;29438;50.664;10.098;2023-06-19T10:20:53;33.70;37.30
43808;DHT22;29438;50.664;10.098;2023-06-19T10:23:19;33.90;37.30
43808;DHT22;29438;50.664;10.098;2023-06-19T10:25:57;33.70;37.20
43808;DHT22;29438;50.664;10.098;2023-06-19T10:28:31;33.40;37.70
43808;DHT22;29438;50.664;10.098;2023-06-19T10:31:07;32.70;38.70
43808;DHT22;29438;50.664;10.098;2023-06-19T10:33:37;32.30;39.10
43808;DHT22;29438;50.664;10.098;2023-06-19T10:36:19;32.20;39.60
43808;DHT22;29438;50.664;10.098;2023-06-19T10:38:46;31.60;40.20
43808;DHT22;29438;50.664;10.098;2023-06-19T10:41:16;32.60;39.10
43808;DHT22;29438;50.664;10.098;2023-06-19T10:43:41;33.30;38.80
43808;DHT22;29438;50.664;10.098;2023-06-19T10:46:07;32.90;38.40
43808;DHT22;29438;50.664;10.098;2023-06-19T10:48:32;33.10;38.40
43808;DHT22;29438;50.664;10.098;2023-06-19T10:50:58;33.60;39.30
43808;DHT22;29438;50.664;10.098;2023-06-19T10:53:31;33.20;38.40
43808;DHT22;29438;50.664;10.098;2023-06-19T10:55:58;33.10;38.30
43808;DHT22;29438;50.664;10.098;2023-06-19T10:58:25;33.00;37.90
43808;DHT22;29438;50.664;10.098;2023-06-19T11:00:51;32.40;38.40
43808;DHT22;29438;50.664;10.098;2023-06-19T11:03:17;32.50;39.40
43808;DHT22;29438;50.664;10.098;2023-06-19T11:05:46;32.60;39.90
43808;DHT22;29438;50.664;10.098;2023-06-19T11:08:20;33.00;37.50
43808;DHT22;29438;50.664;10.098;2023-06-19T11:10:46;32.70;39.00
43808;DHT22;29438;50.664;10.098;2023-06-19T11:13:19;33.50;38.50
43808;DHT22;29438;50.664;10.098;2023-06-19T11:15:47;33.30;37.40
43808;DHT22;29438;50.664;10.098;2023-06-19T11:18:16;33.00;38.90
43808;DHT22;29438;50.664;10.098;2023-06-19T11:20:51;32.30;38.60
43808;DHT22;29438;50.664;10.098;2023-06-19T11:23:24;31.20;40.90
43808;DHT22;29438;50.664;10.098;2023-06-19T11:25:50;31.00;41.20
43808;DHT22;29438;50.664;10.098;2023-06-19T11:28:16;30.80;41.50
43808;DHT22;29438;50.664;10.098;2023-06-19T11:30:48;30.70;41.60
43808;DHT22;29438;50.664;10.098;2023-06-19T11:33:21;31.50;41.40
43808;DHT22;29438;50.664;10.098;2023-06-19T11:35:54;32.30;39.80
43808;DHT22;29438;50.664;10.098;2023-06-19T11:38:21;32.60;40.60
43808;DHT22;29438;50.664;10.098;2023-06-19T11:40:47;32.40;39.30
43808;DHT22;29438;50.664;10.098;2023-06-19T11:43:26;31.70;40.30
43808;DHT22;29438;50.664;10.098;2023-06-19T11:45:52;31.40;42.00
43808;DHT22;29438;50.664;10.098;2023-06-19T11:48:24;31.70;41.60
43808;DHT22;29438;50.664;10.098;2023-06-19T11:50:50;31.30;41.80
43808;DHT22;29438;50.664;10.098;2023-06-19T11:53:17;31.40;41.60
43808;DHT22;29438;50.664;10.098;2023-06-19T11:55:43;30.90;42.70
43808;DHT22;29438;50.664;10.098;2023-06-19T11:58:09;31.20;43.20
43808;DHT22;29438;50.664;10.098;2023-06-19T12:00:36;31.90;41.80
43808;DHT22;29438;50.664;10.098;2023-06-19T12:03:01;32.40;40.20
43808;DHT22;29438;50.664;10.098;2023-06-19T12:05:27;32.40;41.70
43808;DHT22;29438;50.664;10.098;2023-06-19T12:07:53;32.20;40.50
43808;DHT22;29438;50.664;10.098;2023-06-19T12:10:18;32.40;40.80
43808;DHT22;29438;50.664;10.098;2023-06-19T12:12:44;32.30;40.30
43808;DHT22;29438;50.664;10.098;2023-06-19T12:15:09;32.00;40.70
43808;DHT22;29438;50.664;10.098;2023-06-19T12:17:35;31.60;41.40
43808;DHT22;29438;50.664;10.098;2023-06-19T12:20:02;32.20;40.70
43808;DHT22;29438;50.664;10.098;2023-06-19T12:22:29;31.70;41.60
43808;DHT22;29438;50.664;10.098;2023-06-19T12:24:55;31.60;42.70
43808;DHT22;29438;50.664;10.098;2023-06-19T12:27:20;31.30;41.80
43808;DHT22;29438;50.664;10.098;2023-06-19T12:29:46;31.20;42.70
43808;DHT22;29438;50.664;10.098;2023-06-19T12:32:11;30.70;41.90
43808;DHT22;29438;50.664;10.098;2023-06-19T12:34:37;30.90;43.30
43808;DHT22;29438;50.664;10.098;2023-06-19T12:37:03;30.90;42.60
43808;DHT22;29438;50.664;10.098;2023-06-19T12:39:28;31.10;41.90
43808;DHT22;29438;50.664;10.098;2023-06-19T12:41:54;30.90;43.20
43808;DHT22;29438;50.664;10.098;2023-06-19T12:44:21;31.30;42.80
43808;DHT22;29438;50.664;10.098;2023-06-19T12:46:47;30.90;42.00
43808;DHT22;29438;50.664;10.098;2023-06-19T12:49:12;31.10;43.50
43808;DHT22;29438;50.664;10.098;2023-06-19T12:51:38;31.10;42.40
43808;DHT22;29438;50.664;10.098;2023-06-19T12:54:03;31.00;43.30
43808;DHT22;29438;50.664;10.098;2023-06-19T12:56:30;30.90;43.40
43808;DHT22;29438;50.664;10.098;2023-06-19T12:58:55;30.70;42.80
43808;DHT22;29438;50.664;10.098;2023-06-19T13:01:20;30.90;44.30
43808;DHT22;29438;50.664;10.098;2023-06-19T13:03:46;30.70;42.90
43808;DHT22;29438;50.664;10.098;2023-06-19T13:06:12;30.20;45.60
43808;DHT22;29438;50.664;10.098;2023-06-19T13:08:37;30.20;45.00
43808;DHT22;29438;50.664;10.098;2023-06-19T13:11:03;30.50;44.10
43808;DHT22;29438;50.664;10.098;2023-06-19T13:13:28;30.70;44.20
43808;DHT22;29438;50.664;10.098;2023-06-19T13:15:54;30.60;43.90
43808;DHT22;29438;50.664;10.098;2023-06-19T13:18:19;31.00;43.50
43808;DHT22;29438;50.664;10.098;2023-06-19T13:20:45;30.80;43.10
43808;DHT22;29438;50.664;10.098;2023-06-19T13:23:13;30.60;43.70
43808;DHT22;29438;50.664;10.098;2023-06-19T13:25:39;30.70;42.50
43808;DHT22;29438;50.664;10.098;2023-06-19T13:28:05;31.10;42.00
43808;DHT22;29438;50.664;10.098;2023-06-19T13:30:30;31.10;42.00
43808;DHT22;29438;50.664;10.098;2023-06-19T13:32:56;30.80;43.10
43808;DHT22;29438;50.664;10.098;2023-06-19T13:35:21;30.70;43.50
43808;DHT22;29438;50.664;10.098;2023-06-19T13:37:47;30.50;43.10
43808;DHT22;29438;50.664;10.098;2023-06-19T13:40:12;30.20;44.30
43808;DHT22;29438;50.664;10.098;2023-06-19T13:42:38;30.00;45.50
43808;DHT22;29438;50.664;10.098;2023-06-19T13:45:04;29.90;45.60
43808;DHT22;29438;50.664;10.098;2023-06-19T13:47:30;29.70;44.50
43808;DHT22;29438;50.664;10.098;2023-06-19T13:49:56;29.60;45.10
43808;DHT22;29438;50.664;10.098;2023-06-19T13:52:22;29.90;44.50
43808;DHT22;29438;50.664;10.098;2023-06-19T13:54:48;30.40;44.00
43808;DHT22;29438;50.664;10.098;2023-06-19T13:57:14;30.60;44.10
43808;DHT22;29438;50.664;10.098;2023-06-19T13:59:40;30.80;43.20
43808;DHT22;29438;50.664;10.098;2023-06-19T14:02:05;30.90;42.20
43808;DHT22;29438;50.664;10.098;2023-06-19T14:04:31;30.70;42.40
43808;DHT22;29438;50.664;10.098;2023-06-19T14:06:57;30.70;41.70
43808;DHT22;29438;50.664;10.098;2023-06-19T14:09:22;30.70;44.60
43808;DHT22;29438;50.664;10.098;2023-06-19T14:11:48;30.80;42.30
43808;DHT22;29438;50.664;10.098;2023-06-19T14:14:13;30.50;42.60
43808;DHT22;29438;50.664;10.098;2023-06-19T14:16:39;30.50;42.50
43808;DHT22;29438;50.664;10.098;2023-06-19T14:19:04;29.90;42.00
43808;DHT22;29438;50.664;10.098;2023-06-19T14:21:30;29.90;43.50
43808;DHT22;29438;50.664;10.098;2023-06-19T14:23:56;29.90;43.20
43808;DHT22;29438;50.664;10.098;2023-06-19T14:26:21;30.00;43.60
43808;DHT22;29438;50.664;10.098;2023-06-19T14:28:47;29.70;43.80
43808;DHT22;29438;50.664;10.098;2023-06-19T14:31:12;29.40;43.50
43808;DHT22;29438;50.664;10.098;2023-06-19T14:33:38;29.50;44.60
43808;DHT22;29438;50.664;10.098;2023-06-19T14:36:04;29.70;43.40
43808;DHT22;29438;50.664;10.098;2023-06-19T14:38:30;29.90;43.20
43808;DHT22;29438;50.664;10.098;2023-06-19T14:41:00;30.00;42.00
43808;DHT22;29438;50.664;10.098;2023-06-19T14:43:44;29.80;42.50
43808;DHT22;29438;50.664;10.098;2023-06-19T14:46:10;29.10;43.70
43808;DHT22;29438;50.664;10.098;2023-06-19T14:48:35;28.70;44.60
43808;DHT22;29438;50.664;10.098;2023-06-19T14:51:01;28.60;45.40
43808;DHT22;29438;50.664;10.098;2023-06-19T14:53:26;28.70;43.90
43808;DHT22;29438;50.664;10.098;2023-06-19T14:55:52;28.80;43.50
43808;DHT22;29438;50.664;10.098;2023-06-19T14:58:17;28.60;43.90
43808;DHT22;29438;50.664;10.098;2023-06-19T15:00:43;28.60;44.80
43808;DHT22;29438;50.664;10.098;2023-06-19T15:03:08;28.60;44.60
43808;DHT22;29438;50.664;10.098;2023-06-19T15:05:34;28.80;44.90
43808;DHT22;29438;50.664;10.098;2023-06-19T15:08:00;28.70;44.30
43808;DHT22;29438;50.664;10.098;2023-06-19T15:10:26;28.80;45.30
43808;DHT22;29438;50.664;10.098;2023-06-19T15:12:52;28.80;45.40
43808;DHT22;29438;50.664;10.098;2023-06-19T15:15:17;28.90;45.30
43808;DHT22;29438;50.664;10.098;2023-06-19T15:17:43;29.10;45.10